San Pedro, Belize

1:15 PM CST on September 03, 2015 (GMT -0600)
Blake St. San Pedro | | Change Station
CLOSE
Current Station
Personal Weather Station
Location: San Pedro,
Elevation: 10 ft
Nearby Weather Stations

Elev 10 ft 17.91 °N, 87.97 °W | Updated 48 seconds ago

Scattered Clouds
Scattered Clouds
87.5 °F
Feels Like 100 °F
N
9.8
Wind Variable Wind from ESE
Gusts 12.0 mph

Today
High -- | Low -- °F
--% Chance of Precip.
Yesterday
High -- | Low -- °F
Precip. -- in
5:37 AM 6:04 PM
Waning Gibbous, 67% visible
Pressure 29.89 in
Visibility 6.2 miles
Clouds Scattered Clouds 2400 ft
Heat Index 100 °F
Dew Point 77 °F
Humidity 72%
Rainfall 0.04 in
Snow Depth Not available.
UV 13 out of 12
Pollen Not available.
Air Quality Not available.
Flu Activity Not available.
METAR MZBZ 031900Z 15007KT 9999 SCT024 33/24 A2989 Q1012 NOSIG
Pressure 29.89 in
Visibility 6.2 miles
Clouds Scattered Clouds 2400 ft
Heat Index 100 °F
Dew Point 77 °F
Humidity 72%
Rainfall 0.04 in
Snow Depth Not available.
UV 13 out of 12
Pollen Not available.
Air Quality Not available.
Flu Activity Not available.
METAR MZBZ 031900Z 15007KT 9999 SCT024 33/24 A2989 Q1012 NOSIG

10-Day Weather Forecast

×

Almanac

Astronomy

Sep. 03, 2015 Rise Set
Actual Time
Civil Twilight
Nautical Twilight
Astronomical Twilight
Moon
Length of Visible Light
Length of Day
Tomorrow will be .
, % of the Moon is Illuminated

Today's Extremes

Country Highs Country Lows

Community

WunderPhotos

Upload Photos

1,852,014 photos uploaded!

WunderBlogs® & News

Nearby

Air Quality

  Air Quality AQ Index Pollutant
Not available.

Snow Depth

Station Depth Elevation

Earthquake Activity

City Distance Mag. Time & Date
Minimum magnitude displayed is 2.5.

Coastal Water Temperatures

Place Temperature

Stations

Nearby Weather Stations

Station Location Temp. Windchill Dew Point Humidity Wind Precip. Elev Updated Type